Time;durP1;ratioP1;P1;durP2;ratioP2;P2;SDS_P1;SDS_P2;PMS_P1;PMS_P2;Temp;Humidity;BMP_temperature;BMP_pressure;BME280_temperature;BME280_humidity;BME280_pressure;Samples;Min_cycle;Max_cycle;Signal;HPM_P1;HPM_P2
2020/12/27 00:01:38;;;;;;;4.07;3.47;;;4.10;99.90;;;;;;5068452;28;20863;-69
2020/12/27 00:04:03;;;;;;;3.67;3.23;;;4.10;99.90;;;;;;5070004;28;20169;-68
2020/12/27 00:06:30;;;;;;;3.87;3.57;;;4.00;99.90;;;;;;5069971;28;20209;-68
2020/12/27 00:08:55;;;;;;;5.27;3.90;;;4.00;99.90;;;;;;5073653;28;20192;-64
2020/12/27 00:11:21;;;;;;;5.00;4.50;;;4.00;99.90;;;;;;5073571;28;20176;-66
2020/12/27 00:13:46;;;;;;;4.37;3.13;;;4.00;99.90;;;;;;5073298;28;20180;-68
2020/12/27 00:16:11;;;;;;;4.30;3.93;;;3.90;99.90;;;;;;5073577;28;20283;-68
2020/12/27 00:18:37;;;;;;;4.30;3.90;;;3.90;99.90;;;;;;5073769;28;20185;-71
2020/12/27 00:21:02;;;;;;;4.17;3.77;;;3.90;99.90;;;;;;5072863;28;20205;-71
2020/12/27 00:23:28;;;;;;;4.80;4.30;;;3.80;99.90;;;;;;5073401;28;20183;-70
2020/12/27 00:25:53;;;;;;;4.57;3.30;;;3.80;99.90;;;;;;5074002;28;20181;-72
2020/12/27 00:28:19;;;;;;;4.27;3.83;;;3.80;99.90;;;;;;5073150;28;20173;-68
2020/12/27 00:30:45;;;;;;;6.70;4.43;;;3.80;99.90;;;;;;5072642;28;20514;-68
2020/12/27 00:33:10;;;;;;;5.37;3.90;;;3.80;99.90;;;;;;5073199;28;20250;-68
2020/12/27 00:35:36;;;;;;;4.77;4.03;;;3.80;99.90;;;;;;5073331;28;20221;-68
2020/12/27 00:38:02;;;;;;;5.57;4.23;;;3.80;99.90;;;;;;5075351;28;20250;-68
2020/12/27 00:40:27;;;;;;;4.80;3.00;;;3.80;99.90;;;;;;5076384;28;20201;-69
2020/12/27 00:42:53;;;;;;;6.67;4.67;;;3.80;99.90;;;;;;5072625;28;20310;-70
2020/12/27 00:45:18;;;;;;;4.20;3.20;;;3.70;99.90;;;;;;5072757;28;20173;-67
2020/12/27 00:47:44;;;;;;;5.03;4.53;;;3.70;99.90;;;;;;5072611;28;20169;-68
2020/12/27 00:50:10;;;;;;;5.47;4.60;;;3.70;99.90;;;;;;5072574;28;20197;-67
2020/12/27 16:59:32;;;;;;;1.60;1.50;;;2.70;99.90;;;;;;5101507;27;20656;-71
2020/12/27 17:01:58;;;;;;;2.63;1.20;;;2.70;99.90;;;;;;5091266;28;20176;-73
2020/12/27 17:04:23;;;;;;;2.13;1.17;;;2.70;99.90;;;;;;5104890;28;20234;-72
2020/12/27 17:06:51;;;;;;;1.80;1.70;;;2.70;99.90;;;;;;5094917;28;20178;-72
2020/12/27 17:09:17;;;;;;;2.13;1.23;;;2.70;99.90;;;;;;5097487;28;20229;-72
2020/12/27 17:11:43;;;;;;;1.40;1.20;;;2.70;99.90;;;;;;5112443;22;20599;-67
2020/12/27 17:14:08;;;;;;;1.47;1.37;;;2.70;99.90;;;;;;5067161;28;20173;-67
2020/12/27 17:16:36;;;;;;;1.93;1.67;;;2.70;99.90;;;;;;5067497;28;20304;-70
2020/12/27 17:19:03;;;;;;;1.63;1.53;;;2.70;99.90;;;;;;5067401;28;20196;-68
2020/12/27 17:21:28;;;;;;;2.47;1.70;;;2.70;99.90;;;;;;5066799;28;20672;-68
2020/12/27 17:23:54;;;;;;;2.00;1.17;;;2.80;99.90;;;;;;5067496;28;20170;-65
2020/12/27 17:26:19;;;;;;;1.00;1.00;;;2.70;99.90;;;;;;5067887;28;20177;-65
2020/12/27 17:28:44;;;;;;;1.57;1.10;;;2.70;99.90;;;;;;5068781;28;20189;-66
2020/12/27 17:31:10;;;;;;;2.43;1.80;;;2.70;99.90;;;;;;5069157;28;20184;-67
2020/12/27 17:33:35;;;;;;;2.83;1.73;;;2.70;99.90;;;;;;5066567;28;20264;-64
2020/12/27 17:36:01;;;;;;;1.27;1.17;;;2.70;99.90;;;;;;5062550;28;20186;-65
2020/12/27 17:38:27;;;;;;;1.60;1.50;;;2.70;99.90;;;;;;5066281;28;20201;-65
2020/12/27 17:40:52;;;;;;;1.63;1.53;;;2.70;99.90;;;;;;5065773;28;20252;-65
2020/12/27 17:43:18;;;;;;;1.83;1.20;;;2.70;99.90;;;;;;5072696;28;20569;-64
2020/12/27 17:45:43;;;;;;;1.27;1.17;;;2.70;99.90;;;;;;5066643;28;20169;-65
2020/12/27 17:48:08;;;;;;;2.67;1.47;;;2.70;99.90;;;;;;5066498;28;20204;-64
2020/12/27 17:50:34;;;;;;;1.40;1.30;;;2.70;99.90;;;;;;5065687;28;20260;-65
2020/12/27 17:52:59;;;;;;;1.13;1.10;;;2.70;99.90;;;;;;5065821;28;20188;-65
2020/12/27 17:55:25;;;;;;;1.47;1.37;;;2.70;99.90;;;;;;5066235;28;20630;-65
2020/12/27 17:57:50;;;;;;;1.97;1.53;;;2.70;99.90;;;;;;5068031;28;20197;-66
2020/12/27 18:00:16;;;;;;;1.53;1.30;;;2.70;99.90;;;;;;5066013;28;20276;-64
2020/12/27 18:02:41;;;;;;;1.50;1.40;;;2.70;99.90;;;;;;5065405;28;20217;-64
2020/12/27 18:05:07;;;;;;;1.10;0.93;;;2.70;99.90;;;;;;5065115;28;20188;-65
2020/12/27 18:07:32;;;;;;;1.30;1.20;;;2.70;99.90;;;;;;5064390;28;20210;-64
2020/12/27 18:09:58;;;;;;;2.43;1.70;;;2.70;99.90;;;;;;5041175;28;20642;-64
2020/12/27 18:12:23;;;;;;;1.93;1.57;;;2.70;99.90;;;;;;5051099;28;20661;-64
2020/12/27 18:14:49;;;;;;;1.40;1.30;;;2.70;99.90;;;;;;5053805;28;20182;-64
2020/12/27 18:17:16;;;;;;;1.43;1.33;;;2.60;99.90;;;;;;5052368;28;20192;-64
2020/12/27 18:19:42;;;;;;;1.53;1.40;;;2.70;99.90;;;;;;5051819;28;20190;-64
2020/12/27 18:22:08;;;;;;;2.20;1.67;;;2.60;99.90;;;;;;5051121;28;20650;-64
2020/12/27 18:24:35;;;;;;;1.80;1.60;;;2.60;99.90;;;;;;5050625;28;20295;-64
2020/12/27 18:27:00;;;;;;;1.30;1.20;;;2.60;99.90;;;;;;5050373;28;20624;-63
2020/12/27 18:29:26;;;;;;;1.37;1.27;;;2.60;99.90;;;;;;5048983;28;20173;-64
2020/12/27 18:31:54;;;;;;;4.63;1.30;;;2.60;99.90;;;;;;5053500;28;20202;-66
2020/12/27 18:34:27;;;;;;;2.83;1.63;;;2.70;99.90;;;;;;5033241;28;20178;-67
2020/12/27 18:36:53;;;;;;;1.70;1.60;;;2.70;99.90;;;;;;5032906;28;20654;-62
2020/12/27 18:39:18;;;;;;;2.20;1.90;;;2.60;99.90;;;;;;5053873;28;20202;-66
2020/12/27 18:41:47;;;;;;;1.80;1.50;;;2.60;99.90;;;;;;5035129;28;20193;-65
2020/12/27 18:44:13;;;;;;;2.30;1.73;;;2.60;99.90;;;;;;5052719;28;20365;-65
2020/12/27 18:46:38;;;;;;;1.60;1.50;;;2.60;99.90;;;;;;5035198;28;20298;-65
2020/12/27 18:49:09;;;;;;;1.80;1.30;;;2.60;99.90;;;;;;5036609;28;20177;-65
2020/12/27 18:51:35;;;;;;;2.87;1.37;;;2.60;99.90;;;;;;5058103;28;20305;-64
2020/12/27 18:54:01;;;;;;;3.20;2.10;;;2.60;99.90;;;;;;5053354;28;20557;-65
2020/12/27 18:56:27;;;;;;;1.53;1.43;;;2.60;99.90;;;;;;5055317;28;20181;-64
2020/12/27 18:58:52;;;;;;;2.63;1.87;;;2.60;99.90;;;;;;5056227;28;20277;-65
2020/12/27 19:01:18;;;;;;;2.87;2.57;;;2.60;99.90;;;;;;5052065;28;20186;-65
2020/12/27 19:03:44;;;;;;;1.93;1.80;;;2.60;99.90;;;;;;5052217;28;20239;-65
2020/12/27 19:06:20;;;;;;;2.40;2.20;;;2.60;99.90;;;;;;5055943;28;20184;-66
2020/12/27 19:08:49;;;;;;;2.10;1.90;;;2.60;99.90;;;;;;5053282;28;20554;-66
2020/12/27 19:11:15;;;;;;;1.73;1.37;;;2.60;99.90;;;;;;5052636;28;20189;-65
2020/12/27 19:13:41;;;;;;;2.20;1.97;;;2.60;99.90;;;;;;5061992;28;20185;-65
2020/12/27 19:16:07;;;;;;;1.40;1.30;;;2.60;99.90;;;;;;5043517;28;20189;-63
2020/12/27 19:18:33;;;;;;;1.93;1.70;;;2.60;99.90;;;;;;5048508;28;20206;-63
2020/12/27 19:20:58;;;;;;;1.60;1.47;;;2.50;99.90;;;;;;5047667;28;20196;-64
2020/12/27 19:23:24;;;;;;;4.07;2.07;;;2.50;99.90;;;;;;5049302;28;20251;-65
2020/12/27 19:25:49;;;;;;;4.13;2.40;;;2.50;99.90;;;;;;5050543;28;20256;-64
2020/12/27 19:28:15;;;;;;;2.20;2.00;;;2.50;99.90;;;;;;5049820;28;20190;-66
2020/12/27 19:30:40;;;;;;;2.27;1.50;;;2.50;99.90;;;;;;5048693;28;20581;-65
2020/12/27 19:33:06;;;;;;;2.07;1.57;;;2.40;99.90;;;;;;5050160;28;20228;-65
2020/12/27 19:35:31;;;;;;;3.60;2.17;;;2.40;99.90;;;;;;5032489;28;20178;-65
2020/12/27 19:37:57;;;;;;;2.53;1.90;;;2.50;99.90;;;;;;5032562;28;20204;-65
2020/12/27 19:40:23;;;;;;;2.33;2.13;;;2.50;99.90;;;;;;5050529;28;20166;-67
2020/12/27 19:42:48;;;;;;;3.60;2.07;;;2.50;99.90;;;;;;5048565;28;20285;-69
2020/12/27 19:45:14;;;;;;;2.90;1.80;;;2.50;99.90;;;;;;5050952;28;20165;-72
2020/12/27 19:47:39;;;;;;;1.80;1.57;;;2.50;99.90;;;;;;5050809;28;20216;-70
2020/12/27 19:50:05;;;;;;;1.43;1.20;;;2.50;99.90;;;;;;5051200;28;20501;-70
2020/12/27 19:52:30;;;;;;;3.17;2.00;;;2.50;99.90;;;;;;5049459;28;20642;-70
2020/12/27 19:54:56;;;;;;;1.63;1.53;;;2.50;99.90;;;;;;5051096;28;20196;-61
2020/12/27 19:57:24;;;;;;;3.10;2.23;;;2.50;99.90;;;;;;5048568;28;20201;-62
2020/12/27 19:59:50;;;;;;;3.03;2.10;;;2.50;99.90;;;;;;5048592;28;20193;-60
2020/12/27 20:02:16;;;;;;;2.60;2.20;;;2.50;99.90;;;;;;5048681;28;20336;-61
2020/12/27 20:04:41;;;;;;;2.83;2.20;;;2.50;99.90;;;;;;5049298;28;20265;-63
2020/12/27 20:07:06;;;;;;;2.10;1.90;;;2.50;99.90;;;;;;5049901;28;20170;-60
2020/12/27 20:09:32;;;;;;;3.10;2.20;;;2.50;99.90;;;;;;5047603;28;20194;-62
2020/12/27 20:11:58;;;;;;;3.63;2.13;;;2.50;99.90;;;;;;5049034;28;20209;-60
2020/12/27 20:14:23;;;;;;;1.97;1.57;;;2.50;99.90;;;;;;5051411;28;20201;-61
2020/12/27 20:16:49;;;;;;;2.97;2.20;;;2.50;99.90;;;;;;5032574;28;20186;-62
2020/12/27 20:19:15;;;;;;;2.30;2.10;;;2.50;99.90;;;;;;5043519;28;20236;-63
2020/12/27 20:21:46;;;;;;;2.47;1.80;;;2.50;99.90;;;;;;5049611;28;20243;-62
2020/12/27 20:24:12;;;;;;;3.30;2.30;;;2.50;99.90;;;;;;5017215;28;20285;-62
2020/12/27 20:26:37;;;;;;;2.83;2.47;;;2.40;99.90;;;;;;5017230;28;20265;-63
2020/12/27 20:29:06;;;;;;;2.17;1.97;;;2.40;99.90;;;;;;5011023;28;20671;-61
2020/12/27 20:31:32;;;;;;;2.40;2.03;;;2.40;99.90;;;;;;5021138;28;20205;-64
2020/12/27 20:33:57;;;;;;;1.60;1.50;;;2.40;99.90;;;;;;5050006;28;20174;-63
2020/12/27 20:36:23;;;;;;;2.70;2.20;;;2.40;99.90;;;;;;5049525;28;20260;-62
2020/12/27 20:38:49;;;;;;;2.50;2.20;;;2.40;99.90;;;;;;5049216;28;20296;-61
2020/12/27 20:41:15;;;;;;;3.63;2.43;;;2.30;99.90;;;;;;5049576;28;20181;-61
2020/12/27 20:43:40;;;;;;;2.20;1.53;;;2.40;99.90;;;;;;5046920;28;20277;-61
2020/12/27 20:46:07;;;;;;;1.70;1.60;;;2.40;99.90;;;;;;5032189;28;20204;-61
2020/12/27 20:48:32;;;;;;;1.73;1.53;;;2.40;99.90;;;;;;5031334;28;20235;-62
2020/12/27 20:50:58;;;;;;;2.53;2.30;;;2.40;99.90;;;;;;5049138;28;20185;-63
2020/12/27 20:53:24;;;;;;;2.60;2.40;;;2.40;99.90;;;;;;5051747;28;20193;-62
2020/12/27 20:55:49;;;;;;;2.77;2.47;;;2.40;99.90;;;;;;5051937;28;20174;-63
2020/12/27 20:58:15;;;;;;;5.70;2.70;;;2.40;99.90;;;;;;5052099;28;20201;-63
2020/12/27 21:00:41;;;;;;;3.43;2.90;;;2.40;99.90;;;;;;5048773;28;20204;-62
2020/12/27 21:03:07;;;;;;;4.13;2.20;;;2.40;99.90;;;;;;5049767;28;20205;-63
2020/12/27 21:05:33;;;;;;;4.77;2.60;;;2.40;99.90;;;;;;5051117;28;20214;-71
2020/12/27 21:07:59;;;;;;;2.23;1.93;;;2.40;99.90;;;;;;5053765;28;20190;-71
2020/12/27 21:10:28;;;;;;;2.03;1.47;;;2.40;99.90;;;;;;5039002;28;20197;-71
2020/12/27 21:12:55;;;;;;;3.37;2.67;;;2.30;99.90;;;;;;5036468;28;20229;-70
2020/12/27 21:15:23;;;;;;;2.57;2.37;;;2.40;99.90;;;;;;5028406;28;20631;-70
2020/12/27 21:17:49;;;;;;;2.97;2.30;;;2.40;99.90;;;;;;5037238;28;20205;-70
2020/12/27 21:20:15;;;;;;;3.20;2.57;;;2.30;99.90;;;;;;5037873;28;20550;-70
2020/12/27 21:22:44;;;;;;;2.87;2.03;;;2.30;99.90;;;;;;5035907;28;20735;-70
2020/12/27 21:25:09;;;;;;;4.60;2.73;;;2.30;99.90;;;;;;5034803;28;20178;-70
2020/12/27 21:27:35;;;;;;;2.47;2.07;;;2.30;99.90;;;;;;5052317;28;20196;-70
2020/12/27 21:30:01;;;;;;;2.67;2.47;;;2.30;99.90;;;;;;5048183;28;20189;-70
2020/12/27 21:32:27;;;;;;;3.80;2.67;;;2.30;99.90;;;;;;5032824;28;20705;-70
2020/12/27 21:34:53;;;;;;;2.57;2.10;;;2.30;99.90;;;;;;5052569;28;20237;-73
2020/12/27 21:37:22;;;;;;;1.90;1.77;;;2.30;99.90;;;;;;5049441;28;20670;-63
2020/12/27 21:39:48;;;;;;;3.50;2.50;;;2.40;99.90;;;;;;5049300;28;20555;-61
2020/12/27 21:42:14;;;;;;;3.33;3.03;;;2.40;99.90;;;;;;5032952;28;20618;-63
2020/12/27 21:44:40;;;;;;;2.83;2.57;;;2.40;99.90;;;;;;5051864;28;20185;-65
2020/12/27 21:47:07;;;;;;;3.03;1.90;;;2.40;99.90;;;;;;5054923;28;20174;-61
2020/12/27 21:49:33;;;;;;;4.20;3.10;;;2.40;99.90;;;;;;5036549;28;20178;-62
2020/12/27 21:51:59;;;;;;;2.07;1.93;;;2.40;99.90;;;;;;5053821;28;20194;-63
2020/12/27 21:54:25;;;;;;;5.00;2.57;;;2.40;99.90;;;;;;5035847;28;20544;-62
2020/12/27 21:56:51;;;;;;;2.10;1.80;;;2.40;99.90;;;;;;5035200;28;20410;-63
2020/12/27 21:59:17;;;;;;;3.00;2.70;;;2.40;99.90;;;;;;5053451;28;20197;-62
2020/12/27 22:01:49;;;;;;;6.80;3.37;;;2.40;99.90;;;;;;5052310;28;20252;-63
2020/12/27 22:04:15;;;;;;;3.73;1.43;;;2.50;99.90;;;;;;5053284;28;20617;-62
2020/12/27 22:06:40;;;;;;;2.60;2.33;;;2.50;99.90;;;;;;5053067;28;20170;-62
2020/12/27 22:09:06;;;;;;;3.20;2.37;;;2.50;99.90;;;;;;5052719;28;20638;-63
